Time;durP1;ratioP1;P1;durP2;ratioP2;P2;SDS_P1;SDS_P2;PMS_P1;PMS_P2;Temp;Humidity;BMP_temperature;BMP_pressure;BME280_temperature;BME280_humidity;BME280_pressure;Samples;Min_cycle;Max_cycle;Signal;HPM_P1;HPM_P2
2022/07/08 00:02:00;;;;;;;6.03;2.50;;;15.90;99.90;;;;;;5044289;28;20190;-35
2022/07/08 00:04:26;;;;;;;5.37;1.20;;;15.90;99.90;;;;;;5032866;28;20447;-35
2022/07/08 00:06:52;;;;;;;4.53;1.50;;;15.90;99.90;;;;;;5043840;28;20823;-35
2022/07/08 00:09:18;;;;;;;8.27;1.83;;;16.00;99.90;;;;;;5042565;28;20186;-35
2022/07/08 00:11:44;;;;;;;2.10;1.10;;;16.00;99.90;;;;;;5045321;28;20494;-35
2022/07/08 00:14:10;;;;;;;6.27;1.20;;;16.00;99.90;;;;;;5032956;28;20421;-35
2022/07/08 00:16:40;;;;;;;4.83;1.60;;;15.90;99.90;;;;;;5032295;28;20452;-35
2022/07/08 00:19:07;;;;;;;5.43;2.00;;;15.90;99.90;;;;;;5032621;28;20520;-35
2022/07/08 00:21:34;;;;;;;3.67;1.50;;;15.90;99.90;;;;;;5038515;28;20800;-35
2022/07/08 00:24:00;;;;;;;5.97;1.80;;;15.80;99.90;;;;;;5032758;28;20528;-35
2022/07/08 00:26:25;;;;;;;4.60;1.43;;;15.80;99.90;;;;;;5031288;28;20981;-35
2022/07/08 00:28:51;;;;;;;7.03;1.60;;;15.80;99.90;;;;;;5040693;28;20428;-35
2022/07/08 00:31:17;;;;;;;4.90;1.60;;;15.80;99.90;;;;;;5052411;28;20205;-35
2022/07/08 00:33:42;;;;;;;5.33;1.73;;;15.80;99.90;;;;;;5052069;28;20197;-35
2022/07/08 00:36:08;;;;;;;4.90;1.83;;;15.80;99.90;;;;;;5052457;28;20830;-35
2022/07/08 00:38:34;;;;;;;6.23;1.80;;;15.80;99.90;;;;;;5051675;28;20190;-35
2022/07/08 00:41:00;;;;;;;4.63;1.47;;;15.80;99.90;;;;;;5052296;28;21103;-35
2022/07/08 00:43:40;;;;;;;4.10;1.70;;;15.70;99.90;;;;;;5050973;28;20198;-35
2022/07/08 00:46:06;;;;;;;5.57;1.60;;;15.70;99.90;;;;;;5052062;28;20199;-35
2022/07/08 00:48:33;;;;;;;2.63;1.50;;;15.70;99.90;;;;;;5051468;28;20428;-35
2022/07/08 00:51:00;;;;;;;4.27;1.80;;;15.90;99.90;;;;;;5052073;28;20487;-35
2022/07/08 00:53:27;;;;;;;4.23;2.10;;;15.90;99.90;;;;;;5050590;28;20432;-35
2022/07/08 00:55:53;;;;;;;4.00;1.23;;;15.90;99.90;;;;;;5051877;28;20865;-35
2022/07/08 00:58:19;;;;;;;5.70;1.83;;;15.80;99.90;;;;;;5051302;28;20420;-35
2022/07/08 01:00:47;;;;;;;5.73;1.90;;;15.80;99.90;;;;;;5051573;28;20435;-35
2022/07/08 01:03:12;;;;;;;1.97;1.30;;;15.90;99.90;;;;;;5051874;28;20432;-35
2022/07/08 01:05:38;;;;;;;4.53;1.60;;;15.90;99.90;;;;;;5050694;28;20444;-35
2022/07/08 01:08:04;;;;;;;7.03;2.17;;;16.00;99.90;;;;;;5051220;28;20194;-34
2022/07/08 01:10:30;;;;;;;5.83;1.57;;;15.90;99.90;;;;;;5051535;28;20178;-35
2022/07/08 01:12:56;;;;;;;2.77;1.47;;;15.90;99.90;;;;;;5041171;28;20465;-35
2022/07/08 01:15:23;;;;;;;6.90;1.93;;;15.90;99.90;;;;;;5031401;28;21160;-35
2022/07/08 01:17:49;;;;;;;5.87;2.40;;;15.80;99.90;;;;;;5031205;28;20521;-35
2022/07/08 01:20:15;;;;;;;6.43;1.93;;;15.90;99.90;;;;;;5031605;28;20436;-35
2022/07/08 01:22:41;;;;;;;5.17;1.87;;;15.80;99.90;;;;;;5038680;28;20440;-35
2022/07/08 01:25:08;;;;;;;2.80;1.50;;;15.80;99.90;;;;;;5031627;28;20750;-35
2022/07/08 01:27:34;;;;;;;5.00;1.67;;;15.70;99.90;;;;;;5030802;28;20429;-34
2022/07/08 01:30:00;;;;;;;5.63;2.07;;;15.70;99.90;;;;;;5049423;28;20430;-35
2022/07/08 01:32:31;;;;;;;3.97;2.20;;;15.70;99.90;;;;;;5051077;28;20815;-35
2022/07/08 01:34:57;;;;;;;4.90;1.93;;;15.70;99.90;;;;;;5051208;28;20791;-35
2022/07/08 01:37:23;;;;;;;5.63;1.67;;;15.70;99.90;;;;;;5050647;28;20511;-35
2022/07/08 01:39:48;;;;;;;4.63;1.80;;;15.70;99.90;;;;;;5051217;28;20189;-35
2022/07/08 01:42:14;;;;;;;1.90;1.27;;;15.80;99.90;;;;;;5050936;28;20193;-35
2022/07/08 01:44:40;;;;;;;4.57;1.93;;;15.80;99.90;;;;;;5050881;28;20197;-35
2022/07/08 01:47:06;;;;;;;3.00;1.60;;;15.80;99.90;;;;;;5049192;28;20211;-35
2022/07/08 01:49:31;;;;;;;3.33;1.77;;;15.70;99.90;;;;;;5050855;28;20282;-35
2022/07/08 01:51:58;;;;;;;5.80;1.67;;;15.70;99.90;;;;;;5050994;28;20221;-35
2022/07/08 01:54:23;;;;;;;6.47;1.90;;;15.70;99.90;;;;;;5050906;28;20490;-35
2022/07/08 01:56:49;;;;;;;4.03;1.83;;;15.70;99.90;;;;;;5050243;28;21130;-35
2022/07/08 01:59:15;;;;;;;5.80;2.30;;;15.70;99.90;;;;;;5050662;28;20194;-35
2022/07/08 02:01:41;;;;;;;2.47;1.20;;;15.70;99.90;;;;;;5050781;28;20255;-35
2022/07/08 02:04:07;;;;;;;3.67;1.80;;;15.70;99.90;;;;;;5048112;28;20860;-35
2022/07/08 02:06:32;;;;;;;4.80;1.93;;;15.50;99.90;;;;;;5048544;28;20475;-35
2022/07/08 02:08:58;;;;;;;5.10;1.97;;;15.50;99.90;;;;;;5032566;28;20439;-35
2022/07/08 02:14:08;;;;;;;3.63;1.97;;;15.60;99.90;;;;;;5040364;28;20190;-35
2022/07/08 02:16:34;;;;;;;5.90;2.43;;;15.60;99.90;;;;;;5030126;28;20436;-35
2022/07/08 02:18:59;;;;;;;3.70;1.50;;;15.60;99.90;;;;;;5030295;28;20186;-35
2022/07/08 02:21:25;;;;;;;3.30;1.73;;;15.60;99.90;;;;;;5037596;28;20205;-35
2022/07/08 02:23:51;;;;;;;3.60;1.83;;;15.60;99.90;;;;;;5030976;28;20193;-35
2022/07/08 02:26:16;;;;;;;3.50;1.80;;;15.60;99.90;;;;;;5030176;28;20273;-35
2022/07/08 02:28:42;;;;;;;3.10;1.70;;;15.60;99.90;;;;;;5037381;28;20347;-35
2022/07/08 02:31:08;;;;;;;4.40;2.00;;;15.60;99.90;;;;;;5050194;28;20209;-35
2022/07/08 02:33:33;;;;;;;4.73;1.50;;;15.50;99.90;;;;;;5050242;28;20189;-35
2022/07/08 02:35:59;;;;;;;6.10;1.80;;;15.50;99.90;;;;;;5050247;28;20570;-35
2022/07/08 02:38:25;;;;;;;3.80;1.97;;;15.50;99.90;;;;;;5041439;28;20252;-35
2022/07/08 02:40:51;;;;;;;7.80;2.30;;;15.50;99.90;;;;;;5048559;28;20209;-35
2022/07/08 02:43:17;;;;;;;6.73;2.17;;;15.50;99.90;;;;;;5030190;28;20958;-35
2022/07/08 02:45:43;;;;;;;4.40;1.93;;;15.50;99.90;;;;;;5029965;28;20444;-35
2022/07/08 02:48:08;;;;;;;5.60;2.37;;;15.50;99.90;;;;;;5029611;28;20194;-35
2022/07/08 02:50:34;;;;;;;3.30;1.97;;;15.40;99.90;;;;;;5029991;28;20796;-35
2022/07/08 02:53:00;;;;;;;2.40;1.80;;;15.40;99.90;;;;;;5029940;28;20210;-35
2022/07/08 02:55:26;;;;;;;4.10;1.70;;;15.40;99.90;;;;;;5029939;28;20436;-35
2022/07/08 02:57:52;;;;;;;3.50;1.90;;;15.50;99.90;;;;;;5029359;28;20646;-35
2022/07/08 03:00:17;;;;;;;3.50;1.97;;;15.50;99.90;;;;;;5030096;28;20685;-35
2022/07/08 03:02:43;;;;;;;5.50;1.73;;;15.50;99.90;;;;;;5029860;28;20209;-35
2022/07/08 03:05:10;;;;;;;4.93;1.97;;;15.40;99.90;;;;;;5029248;28;20595;-35
2022/07/08 03:07:36;;;;;;;4.47;1.53;;;15.50;99.90;;;;;;5045023;28;20688;-35
2022/07/08 03:10:01;;;;;;;4.00;1.80;;;15.50;99.90;;;;;;5035959;28;20435;-35
2022/07/08 03:12:27;;;;;;;4.20;1.90;;;15.50;99.90;;;;;;5042620;28;20225;-35
2022/07/08 03:14:53;;;;;;;5.87;2.00;;;15.40;99.90;;;;;;5029668;28;20190;-35
2022/07/08 03:17:19;;;;;;;6.10;2.00;;;15.30;99.90;;;;;;5029042;28;20191;-35
2022/07/08 03:19:45;;;;;;;3.07;1.57;;;15.30;99.90;;;;;;5032303;28;20252;-35
2022/07/08 03:22:11;;;;;;;8.17;2.53;;;15.30;99.90;;;;;;5039205;28;20928;-35
2022/07/08 03:24:36;;;;;;;4.00;1.43;;;15.30;99.90;;;;;;5032046;28;20194;-35
2022/07/08 03:27:02;;;;;;;4.37;1.87;;;15.30;99.90;;;;;;5033442;28;20216;-35
2022/07/08 03:29:28;;;;;;;4.50;1.77;;;15.30;99.90;;;;;;5047635;28;20193;-35
2022/07/08 03:31:53;;;;;;;5.70;1.90;;;15.30;99.90;;;;;;5053567;28;20464;-35
2022/07/08 03:34:19;;;;;;;3.70;1.73;;;15.20;99.90;;;;;;5046613;28;20533;-35
2022/07/08 03:36:45;;;;;;;8.23;2.27;;;15.20;99.90;;;;;;5046543;28;20194;-35
2022/07/08 03:39:11;;;;;;;5.93;1.80;;;15.20;99.90;;;;;;5039261;28;20183;-35
2022/07/08 03:41:36;;;;;;;3.37;2.10;;;15.20;99.90;;;;;;5037394;28;20258;-35
2022/07/08 03:44:02;;;;;;;5.77;1.63;;;15.20;99.90;;;;;;5039518;28;20515;-35
2022/07/08 03:46:28;;;;;;;8.37;1.97;;;15.30;99.90;;;;;;5033409;28;20182;-35
2022/07/08 03:48:53;;;;;;;6.00;1.83;;;15.20;99.90;;;;;;5032384;28;20525;-35
2022/07/08 03:51:21;;;;;;;5.67;2.13;;;15.20;99.90;;;;;;5031974;28;20206;-35
2022/07/08 03:53:46;;;;;;;4.67;1.90;;;15.20;99.90;;;;;;5033182;28;20197;-35
2022/07/08 03:56:12;;;;;;;3.47;1.50;;;15.30;99.90;;;;;;5033283;28;21081;-35
2022/07/08 03:58:38;;;;;;;5.43;1.83;;;15.30;99.90;;;;;;5031303;28;20253;-35
2022/07/08 04:01:05;;;;;;;7.17;2.17;;;15.20;99.90;;;;;;5033142;28;20186;-35
2022/07/08 04:03:31;;;;;;;4.47;1.80;;;15.20;99.90;;;;;;5033090;28;20468;-35
2022/07/08 04:05:57;;;;;;;7.03;1.90;;;15.30;99.90;;;;;;5032058;28;20507;-35
2022/07/08 04:08:23;;;;;;;5.73;2.43;;;15.20;99.90;;;;;;5032321;28;20425;-35
2022/07/08 04:10:48;;;;;;;2.83;1.70;;;15.20;99.90;;;;;;5039282;28;20424;-35
2022/07/08 04:13:14;;;;;;;7.13;2.30;;;15.20;99.90;;;;;;5039451;28;20194;-35
2022/07/08 04:15:40;;;;;;;12.20;3.17;;;15.30;99.90;;;;;;5032837;28;20186;-35
2022/07/08 04:18:06;;;;;;;5.10;2.67;;;15.30;99.90;;;;;;5040535;28;20794;-35
2022/07/08 04:20:31;;;;;;;3.37;1.90;;;15.30;99.90;;;;;;5049696;28;20251;-35
2022/07/08 04:22:57;;;;;;;8.43;2.30;;;15.30;99.90;;;;;;5045306;28;20190;-35
2022/07/08 04:25:23;;;;;;;7.80;1.93;;;15.30;99.90;;;;;;5033078;28;20182;-35
2022/07/08 04:27:49;;;;;;;6.50;2.40;;;15.30;99.90;;;;;;5049444;28;20726;-35
2022/07/08 04:30:14;;;;;;;5.20;2.27;;;15.30;99.90;;;;;;5040691;28;20229;-35
2022/07/08 04:32:40;;;;;;;6.17;2.23;;;15.30;99.90;;;;;;5032372;28;20469;-35
2022/07/08 04:35:06;;;;;;;3.73;1.83;;;15.30;99.90;;;;;;5035811;28;20182;-35
2022/07/08 04:37:32;;;;;;;3.93;2.17;;;15.30;99.90;;;;;;5042600;28;20245;-35
2022/07/08 04:39:58;;;;;;;2.77;1.57;;;15.30;99.90;;;;;;5046245;28;20424;-35
2022/07/08 04:42:24;;;;;;;5.47;2.60;;;15.30;99.90;;;;;;5039914;28;20445;-35
2022/07/08 04:44:50;;;;;;;7.03;3.97;;;15.30;99.90;;;;;;5046215;28;20942;-35
2022/07/08 04:47:16;;;;;;;4.10;1.87;;;15.40;99.90;;;;;;5043092;28;20185;-35
2022/07/08 04:49:42;;;;;;;6.03;1.93;;;15.40;99.90;;;;;;5037078;28;20424;-35
2022/07/08 04:52:08;;;;;;;3.67;1.80;;;15.30;99.90;;;;;;5044558;28;20197;-35
2022/07/08 04:54:34;;;;;;;7.30;2.10;;;15.30;99.90;;;;;;5032055;28;20935;-35
2022/07/08 04:57:00;;;;;;;9.53;2.63;;;15.40;99.90;;;;;;5031551;28;20433;-35
2022/07/08 04:59:25;;;;;;;5.57;1.93;;;15.40;99.90;;;;;;5030795;28;21037;-35
2022/07/08 05:01:51;;;;;;;7.03;2.70;;;15.50;99.90;;;;;;5032082;28;20230;-35
2022/07/08 05:04:17;;;;;;;12.97;2.70;;;15.50;99.90;;;;;;5046801;28;20672;-35
2022/07/08 05:06:43;;;;;;;4.93;2.17;;;15.50;99.90;;;;;;5035912;28;20213;-35
2022/07/08 05:09:09;;;;;;;3.13;2.10;;;15.50;99.90;;;;;;5031696;28;20429;-35
2022/07/08 05:11:34;;;;;;;5.77;2.77;;;15.50;99.90;;;;;;5043998;28;20213;-35
2022/07/08 05:14:00;;;;;;;3.77;2.10;;;15.50;99.90;;;;;;5031795;28;20189;-35
2022/07/08 05:16:27;;;;;;;7.90;2.00;;;15.50;99.90;;;;;;5031707;28;20182;-35
2022/07/08 05:18:52;;;;;;;4.07;2.30;;;15.60;99.90;;;;;;5031089;28;20191;-35
2022/07/08 05:21:18;;;;;;;4.50;1.70;;;15.50;99.90;;;;;;5017999;28;20436;-35
2022/07/08 05:23:44;;;;;;;3.27;2.00;;;15.50;99.90;;;;;;5031758;28;20588;-35
2022/07/08 05:26:09;;;;;;;7.17;3.10;;;15.50;99.90;;;;;;5042205;28;20190;-35
2022/07/08 05:28:35;;;;;;;6.80;2.43;;;15.60;99.90;;;;;;5043790;28;20670;-35
2022/07/08 05:31:01;;;;;;;15.83;4.00;;;15.70;99.90;;;;;;5031445;28;20186;-35
2022/07/08 05:33:27;;;;;;;6.20;2.10;;;15.70;99.90;;;;;;5031476;28;20182;-35
2022/07/08 05:35:53;;;;;;;5.90;2.27;;;15.70;99.90;;;;;;5031070;28;20213;-35
2022/07/08 05:38:19;;;;;;;3.00;2.03;;;15.80;99.90;;;;;;5036341;28;20197;-35
2022/07/08 05:40:44;;;;;;;4.13;2.37;;;15.80;99.90;;;;;;5047594;28;20454;-35
2022/07/08 05:43:10;;;;;;;4.80;1.97;;;15.90;99.90;;;;;;5030646;28;20198;-35
2022/07/08 05:45:36;;;;;;;6.80;1.97;;;15.90;99.90;;;;;;5030336;28;20197;-35
2022/07/08 05:48:02;;;;;;;6.37;2.00;;;15.90;99.90;;;;;;5030398;28;20240;-35
2022/07/08 05:50:27;;;;;;;4.20;2.17;;;15.90;99.90;;;;;;5031057;28;20195;-35
2022/07/08 05:52:53;;;;;;;3.83;2.10;;;16.00;99.90;;;;;;5030837;28;20210;-35
2022/07/08 05:55:19;;;;;;;3.53;1.63;;;16.00;99.90;;;;;;5031717;28;20194;-35
2022/07/08 05:57:45;;;;;;;4.57;2.00;;;16.10;99.90;;;;;;5041479;28;20636;-35
2022/07/08 06:00:11;;;;;;;9.40;2.27;;;16.20;99.90;;;;;;5044625;28;20186;-35
2022/07/08 06:02:37;;;;;;;8.73;1.87;;;16.20;99.90;;;;;;5043166;28;20254;-35
2022/07/08 06:05:03;;;;;;;5.70;2.30;;;16.40;99.90;;;;;;5036995;28;20925;-35
2022/07/08 06:07:29;;;;;;;5.87;2.00;;;16.50;99.90;;;;;;5029090;28;20230;-35
2022/07/08 06:09:54;;;;;;;8.03;2.70;;;16.60;99.90;;;;;;5037121;28;20468;-35
2022/07/08 06:12:20;;;;;;;5.30;2.07;;;16.60;99.90;;;;;;5039587;28;20539;-35
2022/07/08 06:14:46;;;;;;;3.53;1.80;;;16.70;99.90;;;;;;5032342;28;20216;-35
2022/07/08 06:17:12;;;;;;;4.43;1.67;;;16.70;99.90;;;;;;5042098;28;20642;-35
2022/07/08 06:19:37;;;;;;;3.77;1.57;;;16.60;99.90;;;;;;5044990;28;20174;-35
2022/07/08 06:22:03;;;;;;;4.73;1.50;;;16.70;99.90;;;;;;5037928;28;20258;-35
2022/07/08 06:24:29;;;;;;;4.20;1.37;;;17.00;99.90;;;;;;5029229;28;20191;-35
2022/07/08 06:26:55;;;;;;;6.17;1.80;;;17.40;99.90;;;;;;5029199;28;20424;-35
2022/07/08 06:29:20;;;;;;;2.30;1.50;;;17.60;99.90;;;;;;5043361;28;20276;-35
2022/07/08 06:31:46;;;;;;;8.10;1.77;;;17.50;99.90;;;;;;5049700;28;20328;-35
2022/07/08 06:34:12;;;;;;;4.30;1.83;;;17.40;99.90;;;;;;5042692;28;20182;-35
2022/07/08 06:36:38;;;;;;;6.03;1.50;;;17.40;99.90;;;;;;5032643;28;20186;-35
2022/07/08 06:39:04;;;;;;;5.00;1.57;;;17.20;99.90;;;;;;5038185;28;20201;-35
2022/07/08 06:41:29;;;;;;;3.80;1.60;;;17.20;99.90;;;;;;5039171;28;20472;-35
2022/07/08 06:43:55;;;;;;;7.17;2.00;;;17.20;99.90;;;;;;5045787;28;20212;-35
2022/07/08 06:46:21;;;;;;;3.60;1.60;;;17.20;99.90;;;;;;5049862;28;20409;-35
2022/07/08 06:48:47;;;;;;;5.37;1.93;;;17.10;99.90;;;;;;5049112;28;20217;-35
2022/07/08 06:51:12;;;;;;;3.23;1.80;;;17.10;99.90;;;;;;5049803;28;20210;-35
2022/07/08 06:56:23;;;;;;;9.67;2.20;;;17.70;99.90;;;;;;5049860;28;20256;-35
2022/07/08 06:58:49;;;;;;;6.70;2.23;;;18.20;99.90;;;;;;5049204;28;20535;-35
2022/07/08 07:01:15;;;;;;;5.93;3.53;;;18.50;99.90;;;;;;5047813;28;20264;-35
2022/07/08 07:03:41;;;;;;;4.50;2.53;;;18.70;99.90;;;;;;5036133;28;20524;-35
2022/07/08 07:06:07;;;;;;;6.80;3.90;;;18.70;99.90;;;;;;5029445;28;20575;-35
2022/07/08 07:08:33;;;;;;;4.53;3.40;;;18.90;99.90;;;;;;5030306;28;20190;-35
2022/07/08 07:10:59;;;;;;;4.20;2.93;;;19.00;99.90;;;;;;5040881;28;20435;-35
2022/07/08 07:13:24;;;;;;;4.03;1.73;;;19.10;99.90;;;;;;5042413;28;21723;-35
2022/07/08 07:15:50;;;;;;;4.07;2.30;;;19.20;99.90;;;;;;5040050;28;20276;-35
2022/07/08 07:18:16;;;;;;;8.10;1.67;;;19.30;99.90;;;;;;5047166;28;20189;-35
2022/07/08 07:20:42;;;;;;;4.63;2.23;;;19.30;99.90;;;;;;5044942;28;20190;-35
2022/07/08 07:23:07;;;;;;;4.60;1.80;;;19.40;99.90;;;;;;5046205;28;20181;-35
2022/07/08 07:25:33;;;;;;;3.43;1.80;;;19.40;99.90;;;;;;5029935;28;20236;-35
2022/07/08 07:27:59;;;;;;;7.83;1.67;;;19.40;99.90;;;;;;5039888;28;20193;-35
2022/07/08 07:30:25;;;;;;;3.30;1.40;;;19.50;99.90;;;;;;5040588;28;20204;-35
2022/07/08 07:32:51;;;;;;;3.10;1.60;;;19.50;99.70;;;;;;5029468;28;20209;-35
2022/07/08 07:35:17;;;;;;;4.37;2.63;;;19.40;99.90;;;;;;5029763;28;20178;-35
2022/07/08 07:37:43;;;;;;;7.80;2.00;;;19.40;99.80;;;;;;5038063;28;20437;-34
2022/07/08 07:40:09;;;;;;;7.33;2.20;;;19.30;99.90;;;;;;5038011;28;20270;-35
2022/07/08 07:42:35;;;;;;;3.93;1.83;;;19.40;99.90;;;;;;5029455;28;20453;-35
2022/07/08 07:45:03;;;;;;;6.60;2.20;;;19.50;99.90;;;;;;5029273;28;20460;-35
2022/07/08 07:47:29;;;;;;;2.70;1.40;;;19.40;99.70;;;;;;5029090;28;20194;-35
2022/07/08 07:49:56;;;;;;;4.80;1.97;;;19.50;99.90;;;;;;5029560;28;20425;-35
2022/07/08 07:52:21;;;;;;;7.37;2.53;;;19.50;99.80;;;;;;5029349;28;20465;-35
2022/07/08 07:54:48;;;;;;;5.13;2.17;;;19.50;99.90;;;;;;5029353;28;20460;-35
2022/07/08 07:57:14;;;;;;;3.10;1.90;;;19.40;99.90;;;;;;5028848;28;20190;-35
2022/07/08 07:59:40;;;;;;;6.93;2.83;;;19.40;99.90;;;;;;5029222;28;20444;-35
2022/07/08 08:02:06;;;;;;;4.50;2.80;;;19.40;99.90;;;;;;5029544;28;20428;-35
2022/07/08 08:04:32;;;;;;;4.53;2.33;;;19.40;99.90;;;;;;5029997;28;20427;-35
2022/07/08 08:06:58;;;;;;;3.63;2.40;;;19.40;99.90;;;;;;5031285;28;20444;-36
2022/07/08 08:09:24;;;;;;;5.23;2.73;;;19.40;99.90;;;;;;5032949;28;20201;-35
2022/07/08 08:11:50;;;;;;;3.70;2.40;;;19.30;99.90;;;;;;5044991;28;20452;-35
2022/07/08 08:14:16;;;;;;;5.83;2.90;;;19.10;99.90;;;;;;5032873;28;20443;-35
2022/07/08 08:16:41;;;;;;;5.60;2.83;;;19.00;99.90;;;;;;5036093;28;20240;-35
2022/07/08 08:19:07;;;;;;;7.20;2.90;;;19.00;99.90;;;;;;5041205;28;20289;-35
2022/07/08 08:21:35;;;;;;;6.63;2.83;;;19.00;99.90;;;;;;5044318;28;20190;-35
2022/07/08 08:24:01;;;;;;;4.67;3.10;;;19.00;99.90;;;;;;5042887;28;20236;-35
2022/07/08 08:26:26;;;;;;;4.63;2.50;;;19.00;99.90;;;;;;5033998;28;21194;-35
2022/07/08 08:28:52;;;;;;;2.60;2.40;;;18.90;99.90;;;;;;5032118;28;20193;-35
2022/07/08 08:31:18;;;;;;;4.17;3.07;;;18.70;99.90;;;;;;5033153;28;20206;-35
2022/07/08 08:33:43;;;;;;;8.93;3.37;;;18.70;99.90;;;;;;5032719;28;20526;-35
2022/07/08 08:36:09;;;;;;;7.53;2.20;;;18.80;99.90;;;;;;5044966;28;20206;-35
2022/07/08 08:38:35;;;;;;;3.43;2.63;;;19.00;99.90;;;;;;5040953;28;20213;-35
2022/07/08 08:41:01;;;;;;;6.70;2.50;;;19.30;99.90;;;;;;5052295;28;20216;-35
2022/07/08 08:43:28;;;;;;;5.33;3.33;;;19.50;99.90;;;;;;5047434;28;20625;-35
2022/07/08 08:45:54;;;;;;;3.80;2.07;;;19.60;99.90;;;;;;5048246;28;20424;-35
2022/07/08 08:48:23;;;;;;;4.70;2.20;;;19.80;99.90;;;;;;5051343;28;20467;-35
2022/07/08 08:50:53;;;;;;;4.10;1.93;;;19.90;99.90;;;;;;5052045;28;21943;-35
2022/07/08 08:53:25;;;;;;;5.60;2.10;;;20.10;99.90;;;;;;5051887;28;21135;-35
2022/07/08 08:55:52;;;;;;;3.53;1.90;;;20.30;99.40;;;;;;5051917;28;20432;-35
2022/07/08 08:58:18;;;;;;;3.93;2.10;;;20.50;99.20;;;;;;5050256;28;20427;-35
2022/07/08 09:00:44;;;;;;;6.20;2.17;;;20.60;99.20;;;;;;5052101;28;20428;-35
2022/07/08 09:03:10;;;;;;;3.40;2.40;;;20.70;98.20;;;;;;5051813;28;21146;-35
2022/07/08 09:05:36;;;;;;;4.33;2.27;;;20.70;98.10;;;;;;5050846;28;20194;-35
2022/07/08 09:08:02;;;;;;;6.47;2.23;;;20.80;99.00;;;;;;5051187;28;20430;-35
2022/07/08 09:10:27;;;;;;;4.23;2.10;;;20.90;98.90;;;;;;5051392;28;20185;-35
2022/07/08 09:13:12;;;;;;;3.47;2.10;;;21.00;98.20;;;;;;5040415;28;20986;-35
2022/07/08 09:15:39;;;;;;;3.80;2.30;;;21.10;98.20;;;;;;5038904;28;20227;-35
2022/07/08 09:18:09;;;;;;;4.03;2.13;;;21.20;97.90;;;;;;5050947;28;20934;-35
2022/07/08 09:20:41;;;;;;;3.70;2.37;;;21.40;98.40;;;;;;5051565;28;20581;-35
2022/07/08 09:23:19;;;;;;;3.00;2.20;;;21.40;97.80;;;;;;5037394;28;20433;-35
2022/07/08 09:25:47;;;;;;;4.80;2.20;;;21.30;97.30;;;;;;5031575;28;20759;-35
2022/07/08 09:28:15;;;;;;;3.27;2.40;;;21.20;97.20;;;;;;5034507;28;20456;-35
2022/07/08 09:30:43;;;;;;;4.23;2.23;;;21.20;98.20;;;;;;5051575;28;20442;-35
2022/07/08 09:33:10;;;;;;;4.17;2.33;;;21.10;98.30;;;;;;5051340;28;21066;-35
2022/07/08 09:35:40;;;;;;;5.93;2.53;;;21.10;98.80;;;;;;5051225;28;20424;-35
2022/07/08 09:38:07;;;;;;;12.70;2.60;;;21.10;99.10;;;;;;5050740;28;20428;-35
2022/07/08 09:40:34;;;;;;;5.97;2.63;;;21.00;98.40;;;;;;5051083;28;21049;-35
2022/07/08 09:43:24;;;;;;;4.70;2.00;;;21.10;98.60;;;;;;5051215;28;20444;-35
2022/07/08 09:45:50;;;;;;;5.40;2.07;;;21.00;98.60;;;;;;5050872;28;20443;-35
2022/07/08 09:48:16;;;;;;;3.50;2.17;;;21.00;99.10;;;;;;5050470;28;20434;-35
2022/07/08 09:50:45;;;;;;;4.87;2.17;;;21.00;99.10;;;;;;5051062;28;20435;-35
2022/07/08 09:53:15;;;;;;;5.87;2.40;;;21.10;98.90;;;;;;5050836;28;20468;-36
2022/07/08 09:55:43;;;;;;;3.13;2.10;;;21.00;99.00;;;;;;5051045;28;20460;-35
2022/07/08 09:58:12;;;;;;;2.17;1.87;;;21.10;98.90;;;;;;5042243;28;20428;-35
2022/07/08 10:00:39;;;;;;;4.40;1.90;;;21.10;99.00;;;;;;5046273;28;20435;-35
2022/07/08 10:03:05;;;;;;;2.77;2.00;;;21.10;99.10;;;;;;5031780;28;20429;-35
2022/07/08 10:05:31;;;;;;;3.10;2.07;;;21.00;98.90;;;;;;5047755;28;20462;-35
2022/07/08 10:07:57;;;;;;;5.07;2.30;;;21.00;98.70;;;;;;5050033;28;20439;-35
2022/07/08 10:10:24;;;;;;;3.70;1.67;;;20.90;98.70;;;;;;5050660;28;20232;-35
2022/07/08 10:12:58;;;;;;;10.40;2.40;;;21.00;98.80;;;;;;5039016;28;20489;-35
2022/07/08 10:15:30;;;;;;;5.73;2.90;;;21.20;99.00;;;;;;5030646;28;20483;-35
2022/07/08 10:18:08;;;;;;;5.00;2.07;;;21.40;98.10;;;;;;5030026;28;20938;-35
2022/07/08 10:20:36;;;;;;;3.73;1.80;;;21.50;99.90;;;;;;5038132;28;20482;-35
2022/07/08 10:23:09;;;;;;;4.73;2.00;;;21.50;98.80;;;;;;5038021;28;20523;-35
2022/07/08 10:25:36;;;;;;;4.00;2.30;;;21.60;98.70;;;;;;5030538;28;20425;-35
2022/07/08 10:28:09;;;;;;;6.97;2.07;;;21.70;98.70;;;;;;5031229;28;20440;-35
2022/07/08 10:30:50;;;;;;;3.73;2.20;;;21.80;98.20;;;;;;5050269;28;20432;-35
2022/07/08 10:33:26;;;;;;;3.23;1.87;;;21.70;98.30;;;;;;5050073;28;20939;-35
2022/07/08 10:36:08;;;;;;;3.63;1.93;;;21.90;98.70;;;;;;5049938;28;20428;-35
2022/07/08 10:38:37;;;;;;;2.87;2.10;;;22.00;97.60;;;;;;5049626;28;20841;-35
2022/07/08 10:41:07;;;;;;;7.50;2.30;;;22.10;97.20;;;;;;5049961;28;20454;-35
2022/07/08 10:43:33;;;;;;;4.87;2.20;;;22.10;96.90;;;;;;5050145;28;20846;-35
2022/07/08 10:46:01;;;;;;;4.60;2.30;;;22.10;97.70;;;;;;5049948;28;20413;-35
2022/07/08 10:48:39;;;;;;;3.30;2.00;;;22.20;98.20;;;;;;5049095;28;20960;-35
2022/07/08 10:51:05;;;;;;;4.50;1.80;;;22.20;96.80;;;;;;5049735;28;20474;-35
2022/07/08 10:54:02;;;;;;;3.17;1.97;;;22.10;97.50;;;;;;5049922;28;20428;-35
2022/07/08 10:56:48;;;;;;;3.30;1.80;;;22.00;97.50;;;;;;5049742;28;20424;-35
2022/07/08 10:59:33;;;;;;;4.50;2.23;;;21.70;98.40;;;;;;5049780;28;20415;-35
2022/07/08 11:02:13;;;;;;;5.83;1.80;;;21.50;97.50;;;;;;5049971;28;20434;-35
2022/07/08 11:04:39;;;;;;;7.07;2.03;;;21.50;98.40;;;;;;5049834;28;20424;-35
2022/07/08 11:09:44;;;;;;;3.00;2.10;;;21.50;98.80;;;;;;5049824;28;20420;-35
2022/07/08 11:12:14;;;;;;;3.80;1.80;;;21.60;98.50;;;;;;5043778;28;20460;-35
2022/07/08 11:14:51;;;;;;;6.53;2.03;;;21.50;97.90;;;;;;5028447;28;21061;-35
2022/07/08 11:17:19;;;;;;;5.50;2.20;;;21.40;98.60;;;;;;5029075;28;20409;-35
2022/07/08 11:19:46;;;;;;;3.30;1.47;;;21.30;98.90;;;;;;5029603;28;20437;-35
2022/07/08 11:22:12;;;;;;;2.20;1.47;;;21.40;99.50;;;;;;5035043;28;20816;-35
2022/07/08 11:24:39;;;;;;;2.43;1.50;;;21.60;99.90;;;;;;5029643;28;20606;-35
2022/07/08 11:27:06;;;;;;;3.67;1.90;;;21.80;99.70;;;;;;5031032;28;20432;-35
2022/07/08 11:29:32;;;;;;;3.40;1.83;;;21.90;98.90;;;;;;5035037;28;20442;-35
2022/07/08 11:32:00;;;;;;;3.90;1.67;;;21.90;99.20;;;;;;5029489;28;20488;-35
2022/07/08 11:34:26;;;;;;;2.97;2.10;;;21.90;99.10;;;;;;5029439;28;20421;-35
2022/07/08 11:36:57;;;;;;;3.73;1.90;;;22.00;99.30;;;;;;5029190;28;20447;-35
2022/07/08 11:39:24;;;;;;;7.80;2.30;;;22.00;99.30;;;;;;5030204;28;20273;-35
2022/07/08 11:41:50;;;;;;;5.03;2.27;;;22.00;99.20;;;;;;5036401;28;20783;-35
2022/07/08 11:44:20;;;;;;;5.30;2.00;;;21.80;99.60;;;;;;5042072;28;20440;-35
2022/07/08 11:46:51;;;;;;;5.03;1.90;;;21.80;99.30;;;;;;5041596;28;20436;-35
2022/07/08 11:49:18;;;;;;;5.00;2.00;;;21.70;99.70;;;;;;5034389;28;20435;-35
2022/07/08 11:51:45;;;;;;;3.07;1.90;;;21.70;99.90;;;;;;5033365;28;20460;-35
2022/07/08 11:54:12;;;;;;;4.27;1.90;;;21.80;99.70;;;;;;5033140;28;20504;-35
2022/07/08 11:56:38;;;;;;;6.83;2.30;;;21.80;99.90;;;;;;5032772;28;20421;-35
2022/07/08 11:59:04;;;;;;;4.43;1.93;;;21.90;99.90;;;;;;5032316;28;20596;-35
2022/07/08 12:01:30;;;;;;;4.70;1.87;;;22.00;99.90;;;;;;5043851;28;20500;-35
2022/07/08 12:03:57;;;;;;;4.23;1.70;;;22.00;99.70;;;;;;5050643;28;20678;-35
2022/07/08 12:06:24;;;;;;;4.10;1.73;;;22.00;99.70;;;;;;5051572;28;20447;-35
2022/07/08 12:08:50;;;;;;;5.47;1.60;;;22.00;99.70;;;;;;5052456;28;20515;-35
2022/07/08 12:11:20;;;;;;;4.90;1.70;;;22.00;99.60;;;;;;5048084;28;21101;-36
2022/07/08 12:13:50;;;;;;;2.77;1.70;;;22.00;99.90;;;;;;5032753;28;20190;-35
2022/07/08 12:16:30;;;;;;;4.40;1.70;;;22.00;99.60;;;;;;5038001;28;20429;-35
2022/07/08 12:18:56;;;;;;;5.60;2.00;;;22.00;99.90;;;;;;5036217;28;20416;-35
2022/07/08 12:21:22;;;;;;;3.97;2.53;;;22.10;99.90;;;;;;5045646;28;20420;-36
2022/07/08 12:24:02;;;;;;;2.93;2.40;;;22.20;99.90;;;;;;5032676;28;20413;-35
2022/07/08 12:26:28;;;;;;;3.50;2.17;;;22.30;99.90;;;;;;5038108;28;20455;-35
2022/07/08 12:28:55;;;;;;;3.53;2.50;;;22.30;99.50;;;;;;5041624;28;20469;-35
2022/07/08 12:31:41;;;;;;;6.73;3.00;;;22.40;99.90;;;;;;5043692;28;20417;-35
2022/07/08 12:34:09;;;;;;;2.57;2.13;;;22.30;99.40;;;;;;5032509;28;20528;-35
2022/07/08 12:36:35;;;;;;;3.00;2.07;;;22.30;99.00;;;;;;5031770;28;20429;-35
2022/07/08 12:39:15;;;;;;;5.60;2.60;;;22.30;99.80;;;;;;5032414;28;20417;-35
2022/07/08 12:41:41;;;;;;;4.20;2.53;;;22.30;99.80;;;;;;5040151;28;20509;-36
2022/07/08 12:44:29;;;;;;;3.03;2.13;;;22.40;99.50;;;;;;5052323;28;20420;-35
2022/07/08 12:46:56;;;;;;;3.80;1.77;;;22.40;99.50;;;;;;5051443;28;20474;-35
2022/07/08 12:49:27;;;;;;;3.23;1.90;;;22.50;99.70;;;;;;5052293;28;20829;-35
2022/07/08 12:51:54;;;;;;;4.40;1.87;;;22.60;99.90;;;;;;5051734;28;20893;-35
2022/07/08 12:54:22;;;;;;;4.97;2.37;;;22.70;99.90;;;;;;5037371;28;20455;-35